Pagrindinis puslapis
METAR-TAF:

METAR-TAF

Oro uostai :

Katanija, Italija

platuma: 37-28N, ilguma: 015-03E, Aukštis: 11 m

Dabartinis oras

Ataskaita buvo paskelbta 40 minutes, ne 21:50 UTC
Vėjas 5 kt iš Vakarų/Pietvakarių
Temperatūra 7°C
Drėgmė 93%
Slėgis 1023 hPa
Matomumas 10 km arba daugiau
nėra debesų žemiau 1500 m ir nėra kamuolinių lietaus debesų

METAR: LICC 272150Z 25005KT CAVOK 07/06 Q1023

Laikas: 23:30 (22:30 UTC)

Prognozė

Ataskaita buvo paskelbta 5 valandos ir 30 minutes, ne 17:00 UTC
Prognozė galioja nuo 27 metu 18 UTC su 28 metu 18 UTC
Vėjas 8 kt iš Vakarų/Pietvakarių
Matomumas 10 km arba daugiau
Išsisklaidę debesys ne aukštis 3000 ft

TAF: LICC 271700Z 2718/2818 25008KT 9999 SCT030

Orai ataskaitas ir orų prognozės (METAR, TAF).

turimą stotys yra geltonos ir raudonos taškus žemėlapyje.

Perkelti pele per norėdami pamatyti stoties vardą.

Tada spustelėkite, norėdami matyti oro stebėjimo ir prognozės.

Norėdami pakeisti žemėlapį: spustelėkite ant žalios mygtukų su juodo kryžiaus žemyn,; žalią mygtuką su brūkšneliu, jei norite nutolinti; arba žalių rodyklių gretimoms žemėlapius.


METAR-TAF: